Detall de PIREP

Printer-friendly versionPDF version

[2013/01/30 12:15:00]
Flight IATA:CT3105
Pilot Number:042
Company ICAO:CAT
Aircraft Type:C750/F
PAX:2
Departing Airport: LFMP
Destination Airport: LIEA
Alternate Airport:LIEO
Online: VATSIM
Route:FJR UM731 PELOS
Flight Level:F250
No Slew and time accel
No pause
Crash detect
Detect pilot in Cockpit between each 30 and 45 minutes
12:15 Zero fuel Weight: 22919 Lbs, Fuel Weight: 12974 Lbs
12:15 VATSIM:LFMP 301200Z VRB02KT CAVOK 16/04 Q1024 NOSIG
12:15 VATSIM:LIEA 301150Z 21011KT 9999 SCT018 15/12 Q1025
12:16 VOICE CATALONIAN
12:21 Parking Brakes off
12:28 Take-off
12:28 Take off Weight: 35768 Lbs
12:28 Wind: 002º @ 002 Knots Heading: 329º
12:28 POS N42º 45´ 03´´ E002º 51´ 52´´
12:28 Gear Up: 154 Knots
12:28 Flaps:4 at 154 Knots
12:29 Flaps:3 at 154 Knots
12:29 Flaps:0 at 187 Knots
12:36 TOC
12:36 Fuel Weight: 12382 Lb
12:43 Wind:321º@047 Knots Heading: 131º Ground Speed: 507 Knots Altitude 25275 ft
12:58 Wind:321º@070 Knots Heading: 123º Ground Speed: 485 Knots Altitude 25219 ft
13:02 TOD
13:02 Fuel Weight: 11602 Lb
13:10 Flaps:2 at 180 Knots
13:10 Flaps:3 at 176 Knots
13:12 Flaps:2 at 198 Knots
13:13 Wind:313º@045 Knots Heading: 121º Ground Speed: 264 Knots Altitude 5413 ft
13:13 Flaps:3 at 202 Knots
13:16 Gear Down: 112 Knots
13:16 Flaps:4 at 112 Knots
13:17 Flaps:5 at 109 Knots
13:20 TouchDown:Rate -432 ft/min Speed: 104 Knots
13:20 VATSIM:LIEA 301250Z 21011KT 9999 SCT018 15/12 Q1025
13:20 Land
13:20 Wind:000º@000 Knots
13:20 Heading: 203º
13:20 Flight Duration: 00:52
13:20 Landing Weight: 34320 Lbs
13:20 POS N40º 37´ 20´´ E008º 17´ 06´´
13:24 Parking brakes on
13:24 Block to Block Duration: 01:03
13:24 Final Fuel: 11349 Lbls
13:24 Spent Fuel: 1624 Lbls
13:24 Flight Length: 343 NM
13:24 TOD Land Length:84 NM

Exportar CSV

Powered by Drupal - Modified by Danger4k